createdAt,value
2018-02-17T00:01:38.514Z,4.25
2018-02-17T00:04:05.978Z,4.19
2018-02-17T00:06:33.436Z,4.13
2018-02-17T00:09:01.199Z,4.07
2018-02-17T00:11:28.656Z,4.11
2018-02-17T00:13:56.110Z,4.13
2018-02-17T00:16:24.220Z,3.92
2018-02-17T00:18:51.678Z,3.90
2018-02-17T00:21:19.174Z,3.95
2018-02-17T00:23:46.903Z,3.83
2018-02-17T00:26:14.368Z,3.82
2018-02-17T00:28:41.830Z,3.88
2018-02-17T00:31:09.645Z,3.97
2018-02-17T00:33:37.636Z,3.84
2018-02-17T00:36:05.104Z,3.73
2018-02-17T00:38:32.845Z,3.65
2018-02-17T00:41:00.309Z,3.73
2018-02-17T00:43:27.764Z,3.94
2018-02-17T00:45:55.584Z,3.71
2018-02-17T00:48:23.044Z,3.72
2018-02-17T00:50:50.502Z,3.65
2018-02-17T00:53:18.276Z,3.66
2018-02-17T00:55:45.750Z,3.77
2018-02-17T00:58:13.213Z,3.50
2018-02-17T01:00:41.272Z,3.65
2018-02-17T01:03:08.750Z,3.34
2018-02-17T01:05:36.227Z,3.20
2018-02-17T01:08:04.269Z,3.49
2018-02-17T01:10:31.724Z,3.27
2018-02-17T01:12:59.188Z,3.35
2018-02-17T01:15:26.972Z,3.33
2018-02-17T01:17:54.460Z,3.26
2018-02-17T01:20:21.930Z,3.28
2018-02-17T01:22:49.961Z,3.25
2018-02-17T01:25:17.425Z,3.35
2018-02-17T01:27:44.889Z,3.31
2018-02-17T01:30:12.615Z,3.53
2018-02-17T01:32:40.074Z,3.34
2018-02-17T01:35:08.104Z,3.36
2018-02-17T01:37:35.957Z,3.16
2018-02-17T01:40:03.410Z,3.54
2018-02-17T01:42:30.876Z,3.46
2018-02-17T01:44:58.649Z,3.41
2018-02-17T01:47:26.112Z,3.55
2018-02-17T01:49:53.576Z,3.38
2018-02-17T01:52:21.945Z,3.40
2018-02-17T01:54:49.450Z,3.58
2018-02-17T01:57:16.893Z,3.79
2018-02-17T01:59:44.945Z,3.74
2018-02-17T02:02:12.411Z,3.54
2018-02-17T02:04:39.873Z,3.47
2018-02-17T02:07:07.643Z,3.67
2018-02-17T02:09:35.108Z,3.57
2018-02-17T02:12:02.574Z,3.73
2018-02-17T02:14:30.509Z,3.52
2018-02-17T02:16:57.965Z,3.64
2018-02-17T02:19:25.432Z,3.71
2018-02-17T02:21:53.264Z,3.81
2018-02-17T02:24:20.718Z,3.69
2018-02-17T02:26:48.182Z,3.43
2018-02-17T02:29:16.007Z,3.46
2018-02-17T02:31:43.474Z,3.43
2018-02-17T02:34:10.928Z,3.29
2018-02-17T02:36:39.301Z,3.14
2018-02-17T02:39:06.761Z,3.11
2018-02-17T02:41:34.224Z,3.04
2018-02-17T02:44:01.986Z,3.12
2018-02-17T02:46:29.444Z,3.15
2018-02-17T02:48:56.911Z,3.16
2018-02-17T02:51:24.982Z,3.04
2018-02-17T02:53:52.450Z,3.21
2018-02-17T02:56:19.938Z,3.29
2018-02-17T02:58:47.666Z,3.44
2018-02-17T03:01:15.130Z,3.44
2018-02-17T03:03:42.601Z,3.24
2018-02-17T03:06:10.375Z,3.07
2018-02-17T03:08:37.830Z,3.09
2018-02-17T03:11:06.411Z,3.26
2018-02-17T03:13:34.285Z,3.06
2018-02-17T03:16:01.745Z,3.02
2018-02-17T03:18:29.200Z,2.88
2018-02-17T03:20:56.989Z,2.90
2018-02-17T03:23:24.458Z,3.01
2018-02-17T03:25:51.932Z,3.10
2018-02-17T03:28:19.661Z,2.87
2018-02-17T03:30:47.117Z,3.04
2018-02-17T03:33:14.593Z,3.04
2018-02-17T03:35:42.650Z,3.18
2018-02-17T03:38:11.412Z,3.13
2018-02-17T03:40:38.870Z,3.29
2018-02-17T03:43:06.788Z,3.13
2018-02-17T03:45:34.249Z,2.80
2018-02-17T03:48:01.697Z,2.90
2018-02-17T03:50:29.417Z,2.95
2018-02-17T03:52:56.875Z,2.95
2018-02-17T03:55:24.340Z,3.05
2018-02-17T03:57:52.248Z,3.14
2018-02-17T04:00:19.706Z,3.40
2018-02-17T04:02:47.173Z,3.24
2018-02-17T04:05:14.929Z,3.12
2018-02-17T04:07:42.381Z,3.06
2018-02-17T04:10:09.840Z,3.43
2018-02-17T04:12:37.613Z,3.26
2018-02-17T04:15:05.077Z,3.06
2018-02-17T04:17:32.539Z,3.04
2018-02-17T04:20:00.292Z,2.98
2018-02-17T04:22:27.743Z,3.00
2018-02-17T04:24:55.204Z,3.06
2018-02-17T04:27:23.292Z,2.95
2018-02-17T04:29:50.753Z,2.89
2018-02-17T04:32:18.230Z,3.08
2018-02-17T04:34:46.252Z,2.93
2018-02-17T04:37:13.722Z,3.04
2018-02-17T04:39:46.142Z,3.33
2018-02-17T04:42:14.811Z,3.37
2018-02-17T04:47:52.124Z,3.76
2018-02-17T04:50:23.141Z,3.61
2018-02-17T04:56:13.628Z,3.70
2018-02-17T04:58:47.031Z,3.89
2018-02-17T05:01:20.020Z,3.89
2018-02-17T05:03:49.421Z,3.98
2018-02-17T05:06:18.020Z,3.93
2018-02-17T05:08:47.000Z,4.16
2018-02-17T05:11:14.832Z,4.17
2018-02-17T05:13:42.289Z,4.04
2018-02-17T05:16:24.806Z,4.07
2018-02-17T05:18:53.047Z,4.09
2018-02-17T05:21:20.511Z,3.93
2018-02-17T05:23:58.549Z,4.19
2018-02-17T05:26:37.727Z,4.00
2018-02-17T05:29:16.213Z,4.10
2018-02-17T05:31:44.057Z,4.12
2018-02-17T05:37:15.698Z,3.94
2018-02-17T05:39:47.822Z,4.01
2018-02-17T05:42:20.748Z,4.17
2018-02-17T05:44:49.489Z,4.31
2018-02-17T05:47:31.853Z,4.29
2018-02-17T05:50:01.017Z,4.08
2018-02-17T05:52:28.464Z,4.19
2018-02-17T05:54:55.905Z,4.15
2018-02-17T05:57:23.681Z,4.04
2018-02-17T05:59:51.128Z,4.33
2018-02-17T06:02:18.575Z,4.28
2018-02-17T06:04:46.378Z,4.17
2018-02-17T06:07:13.829Z,4.30
2018-02-17T06:09:41.272Z,4.30
2018-02-17T06:12:09.021Z,4.26
2018-02-17T06:14:36.464Z,4.24
2018-02-17T06:17:03.924Z,4.29
2018-02-17T06:19:31.738Z,4.05
2018-02-17T06:21:59.192Z,3.96
2018-02-17T06:24:26.649Z,4.10
2018-02-17T06:26:54.421Z,3.88
2018-02-17T06:29:21.875Z,3.84
2018-02-17T06:31:49.320Z,3.80
2018-02-17T06:34:16.996Z,3.78
2018-02-17T06:36:44.444Z,3.73
2018-02-17T06:39:11.946Z,3.84
2018-02-17T06:41:40.409Z,3.83
2018-02-17T06:44:07.865Z,3.91
2018-02-17T06:46:35.313Z,3.98
2018-02-17T06:49:03.101Z,4.03
2018-02-17T06:51:30.570Z,3.94
2018-02-17T06:53:58.029Z,4.19
2018-02-17T06:56:25.800Z,4.07
2018-02-17T06:58:53.256Z,4.06
2018-02-17T07:01:20.701Z,4.19
2018-02-17T07:03:48.424Z,4.52
2018-02-17T07:06:15.878Z,4.75
2018-02-17T07:08:43.342Z,4.83
2018-02-17T07:11:11.210Z,4.96
2018-02-17T07:13:38.670Z,5.10
2018-02-17T07:16:06.117Z,4.77
2018-02-17T07:18:33.844Z,4.92
2018-02-17T07:21:01.301Z,5.23
2018-02-17T07:23:28.753Z,4.93
2018-02-17T07:25:56.400Z,5.10
2018-02-17T07:28:23.853Z,4.87
2018-02-17T07:30:51.300Z,4.48
2018-02-17T07:33:19.225Z,4.48
2018-02-17T07:35:46.686Z,4.61
2018-02-17T07:38:14.148Z,4.76
2018-02-17T07:40:41.907Z,4.71
2018-02-17T07:43:09.746Z,5.10
2018-02-17T07:45:37.195Z,4.62
2018-02-17T07:48:04.892Z,4.88
2018-02-17T07:50:32.329Z,4.79
2018-02-17T07:52:59.778Z,4.98
2018-02-17T07:55:27.589Z,4.85
2018-02-17T07:57:55.036Z,4.80
2018-02-17T08:00:22.481Z,4.75
2018-02-17T08:02:50.274Z,4.85
2018-02-17T08:05:17.746Z,4.79
2018-02-17T08:07:45.190Z,4.97
2018-02-17T08:10:13.274Z,5.17
2018-02-17T08:12:40.726Z,4.71
2018-02-17T08:15:08.179Z,4.89
2018-02-17T08:17:36.262Z,5.05
2018-02-17T08:20:03.730Z,4.94
2018-02-17T08:22:31.190Z,4.95
2018-02-17T08:24:58.962Z,5.09
2018-02-17T08:27:26.420Z,4.86
2018-02-17T08:29:53.877Z,5.02
2018-02-17T08:32:21.513Z,5.01
2018-02-17T08:34:49.178Z,5.45
2018-02-17T08:37:16.633Z,5.62
2018-02-17T08:39:44.330Z,5.71
2018-02-17T08:42:11.808Z,5.61
2018-02-17T08:44:40.236Z,5.30
2018-02-17T08:47:08.557Z,5.18
2018-02-17T08:49:36.015Z,5.58
2018-02-17T08:52:03.477Z,5.32
2018-02-17T08:54:31.237Z,5.24
2018-02-17T08:56:58.705Z,5.51
2018-02-17T08:59:26.162Z,5.31
2018-02-17T09:01:53.937Z,5.54
2018-02-17T09:04:21.394Z,5.72
2018-02-17T09:06:48.848Z,5.65
2018-02-17T09:09:16.912Z,5.47
2018-02-17T09:11:44.372Z,5.21
2018-02-17T09:14:11.820Z,5.78
2018-02-17T09:16:39.605Z,5.87
2018-02-17T09:19:07.059Z,5.97
2018-02-17T09:21:34.520Z,5.37
2018-02-17T09:24:02.323Z,5.47
2018-02-17T09:26:29.779Z,5.34
2018-02-17T09:28:57.241Z,6.10
2018-02-17T09:31:24.991Z,6.09
2018-02-17T09:33:52.453Z,5.93
2018-02-17T09:36:19.934Z,5.49
2018-02-17T09:38:47.671Z,5.97
2018-02-17T09:41:15.132Z,5.64
2018-02-17T09:43:42.592Z,5.61
2018-02-17T09:46:12.497Z,6.13
2018-02-17T09:48:39.954Z,5.34
2018-02-17T09:51:07.409Z,5.64
2018-02-17T09:53:35.194Z,5.35
2018-02-17T09:56:02.645Z,5.38
2018-02-17T09:58:30.101Z,5.53
2018-02-17T10:00:57.882Z,5.44
2018-02-17T10:03:25.342Z,5.27
2018-02-17T10:05:52.800Z,5.47
2018-02-17T10:08:20.570Z,5.65
2018-02-17T10:10:48.056Z,5.64
2018-02-17T10:13:15.577Z,5.37
2018-02-17T10:15:43.567Z,5.43
2018-02-17T10:18:11.022Z,5.15
2018-02-17T10:20:38.474Z,5.19
2018-02-17T10:23:06.554Z,5.16
2018-02-17T10:25:34.010Z,4.85
2018-02-17T10:28:01.460Z,5.22
2018-02-17T10:30:29.234Z,5.25
2018-02-17T10:32:56.684Z,5.04
2018-02-17T10:35:24.172Z,5.27
2018-02-17T10:37:51.922Z,5.43
2018-02-17T10:40:19.369Z,5.27
2018-02-17T10:42:46.827Z,5.18
2018-02-17T10:45:14.465Z,5.42
2018-02-17T10:47:42.449Z,4.99
2018-02-17T10:50:09.899Z,4.67
2018-02-17T10:52:37.917Z,4.60
2018-02-17T10:55:05.368Z,4.68
2018-02-17T10:57:32.810Z,4.96
2018-02-17T11:00:00.916Z,4.71
2018-02-17T11:02:28.374Z,5.00
2018-02-17T11:04:55.834Z,5.07
2018-02-17T11:07:23.598Z,5.25
2018-02-17T11:09:51.082Z,5.36
2018-02-17T11:12:18.549Z,5.13
2018-02-17T11:14:46.301Z,5.00
2018-02-17T11:17:13.749Z,5.07
2018-02-17T11:19:41.214Z,4.98
2018-02-17T11:22:09.148Z,5.52
2018-02-17T11:24:36.618Z,5.19
2018-02-17T11:27:04.072Z,5.35
2018-02-17T11:29:31.957Z,5.59
2018-02-17T11:31:59.481Z,5.45
2018-02-17T11:34:26.940Z,5.56
2018-02-17T11:36:54.948Z,5.31
2018-02-17T11:39:22.421Z,6.05
2018-02-17T11:41:49.873Z,6.12
2018-02-17T11:44:17.641Z,6.06
2018-02-17T11:46:45.103Z,6.04
2018-02-17T11:49:12.945Z,6.09
2018-02-17T11:51:40.942Z,5.80
2018-02-17T11:54:08.398Z,5.48
2018-02-17T11:56:35.853Z,5.47
2018-02-17T11:59:04.241Z,5.50
2018-02-17T12:01:31.697Z,5.58
2018-02-17T12:03:59.144Z,5.56
2018-02-17T12:06:26.930Z,5.63
2018-02-17T12:08:54.420Z,5.65
2018-02-17T12:11:21.848Z,5.65
2018-02-17T12:13:49.617Z,4.99
2018-02-17T12:16:17.074Z,5.36
2018-02-17T12:18:44.528Z,5.58
2018-02-17T12:21:12.298Z,5.38
2018-02-17T12:23:39.760Z,5.63
2018-02-17T12:26:07.213Z,6.14
2018-02-17T12:28:34.958Z,5.78
2018-02-17T12:31:02.409Z,5.64
2018-02-17T12:33:29.862Z,5.76
2018-02-17T12:35:57.684Z,5.77
2018-02-17T12:38:25.150Z,5.91
2018-02-17T12:40:52.605Z,5.73
2018-02-17T12:43:20.329Z,5.77
2018-02-17T12:45:47.780Z,5.91
2018-02-17T12:48:15.231Z,5.70
2018-02-17T12:50:44.584Z,5.96
2018-02-17T12:53:12.033Z,5.87
2018-02-17T12:55:39.491Z,5.94
2018-02-17T12:58:07.307Z,5.73
2018-02-17T13:00:34.745Z,5.77
2018-02-17T13:03:02.196Z,5.62
2018-02-17T13:05:29.945Z,5.78
2018-02-17T13:07:57.402Z,6.48
2018-02-17T13:10:24.861Z,5.90
2018-02-17T13:12:52.647Z,5.64
2018-02-17T13:15:20.101Z,5.69
2018-02-17T13:17:47.569Z,5.39
2018-02-17T13:20:15.204Z,5.71
2018-02-17T13:29:26.161Z,5.56
2018-02-17T13:31:53.609Z,5.23
2018-02-17T13:34:21.061Z,5.40
2018-02-17T13:36:48.845Z,5.17
2018-02-17T13:39:16.301Z,5.23
2018-02-17T13:41:43.749Z,5.31
2018-02-17T13:44:11.541Z,5.39
2018-02-17T13:46:39.006Z,5.03
2018-02-17T13:49:06.464Z,5.35
2018-02-17T13:51:36.018Z,5.32
2018-02-17T13:54:03.471Z,5.40
2018-02-17T13:56:30.921Z,5.14
2018-02-17T13:58:58.754Z,5.29
2018-02-17T14:01:26.203Z,5.34
2018-02-17T14:03:53.648Z,5.15
2018-02-17T14:06:21.754Z,4.97
2018-02-17T14:08:49.259Z,5.04
2018-02-17T14:11:16.717Z,4.85
2018-02-17T14:13:44.738Z,4.98
2018-02-17T14:16:12.181Z,4.90
2018-02-17T14:18:39.633Z,4.61
2018-02-17T14:21:07.398Z,4.68
2018-02-17T14:23:34.846Z,4.81
2018-02-17T14:26:02.292Z,4.82
2018-02-17T14:28:30.118Z,4.71
2018-02-17T14:30:57.575Z,4.66
2018-02-17T14:33:25.020Z,4.23
2018-02-17T14:35:52.802Z,4.76
2018-02-17T14:38:20.260Z,4.85
2018-02-17T14:40:47.719Z,4.36
2018-02-17T14:43:15.491Z,4.60
2018-02-17T14:45:42.945Z,4.51
2018-02-17T14:48:10.397Z,4.64
2018-02-17T14:50:38.171Z,4.52
2018-02-17T14:53:06.639Z,4.43
2018-02-17T14:55:34.117Z,4.01
2018-02-17T14:58:02.089Z,3.97
2018-02-17T15:00:29.558Z,3.75
2018-02-17T15:02:57.028Z,3.64
2018-02-17T15:05:24.777Z,4.00
2018-02-17T15:07:52.242Z,4.64
2018-02-17T15:10:19.694Z,4.18
2018-02-17T15:12:47.473Z,4.16
2018-02-17T15:15:14.931Z,4.09
2018-02-17T15:17:42.385Z,4.02
2018-02-17T15:20:10.157Z,3.92
2018-02-17T15:22:37.625Z,3.81
2018-02-17T15:25:05.112Z,3.90
2018-02-17T15:27:33.144Z,3.65
2018-02-17T15:30:00.600Z,3.42
2018-02-17T15:32:28.048Z,3.10
2018-02-17T15:34:56.144Z,3.26
2018-02-17T15:37:23.603Z,3.15
2018-02-17T15:39:51.064Z,2.91
2018-02-17T15:42:18.822Z,3.16
2018-02-17T15:44:46.283Z,3.20
2018-02-17T15:47:13.755Z,3.20
2018-02-17T15:49:41.824Z,3.11
2018-02-17T15:52:09.282Z,3.64
2018-02-17T15:54:37.362Z,3.35
2018-02-17T15:57:05.130Z,3.50
2018-02-17T15:59:32.594Z,3.52
2018-02-17T16:02:00.058Z,3.75
2018-02-17T16:04:27.859Z,3.71
2018-02-17T16:06:55.317Z,3.63
2018-02-17T16:09:22.782Z,3.70
2018-02-17T16:11:50.501Z,3.92
2018-02-17T16:14:17.961Z,3.84
2018-02-17T16:16:45.422Z,3.37
2018-02-17T16:19:13.178Z,3.60
2018-02-17T16:21:41.330Z,3.69
2018-02-17T16:24:08.800Z,3.35
2018-02-17T16:26:36.483Z,3.18
2018-02-17T16:29:03.945Z,3.22
2018-02-17T16:31:31.405Z,3.16
2018-02-17T16:33:59.131Z,2.87
2018-02-17T16:36:26.609Z,3.20
2018-02-17T16:38:54.072Z,2.97
2018-02-17T16:41:21.984Z,3.22
2018-02-17T16:43:49.450Z,3.12
2018-02-17T16:46:16.920Z,3.16
2018-02-17T16:48:44.549Z,3.29
2018-02-17T16:51:12.006Z,3.20
2018-02-17T16:53:39.464Z,3.22
2018-02-17T16:56:08.758Z,3.08
2018-02-17T16:58:36.234Z,2.88
2018-02-17T17:01:03.698Z,3.09
2018-02-17T17:03:31.761Z,2.97
2018-02-17T17:05:59.225Z,2.85
2018-02-17T17:08:26.687Z,2.64
2018-02-17T17:10:54.458Z,2.62
2018-02-17T17:13:21.928Z,2.64
2018-02-17T17:15:49.393Z,2.34
2018-02-17T17:18:16.979Z,2.83
2018-02-17T17:20:44.445Z,2.48
2018-02-17T17:23:11.906Z,2.57
2018-02-17T17:25:39.746Z,2.56
2018-02-17T17:28:07.190Z,2.52
2018-02-17T17:30:34.648Z,2.30
2018-02-17T17:33:02.777Z,2.16
2018-02-17T17:35:31.121Z,2.36
2018-02-17T17:37:58.585Z,2.19
2018-02-17T17:40:26.749Z,2.24
2018-02-17T17:42:54.213Z,2.31
2018-02-17T17:45:21.702Z,2.01
2018-02-17T17:47:49.730Z,2.03
2018-02-17T17:50:17.206Z,2.05
2018-02-17T17:52:44.669Z,2.17
2018-02-17T17:55:12.413Z,2.09
2018-02-17T17:57:40.193Z,2.21
2018-02-17T18:00:07.649Z,2.16
2018-02-17T18:02:35.709Z,2.13
2018-02-17T18:05:03.165Z,2.16
2018-02-17T18:07:31.485Z,1.89
2018-02-17T18:09:59.317Z,1.95
2018-02-17T18:12:26.780Z,1.91
2018-02-17T18:14:54.241Z,1.83
2018-02-17T18:17:22.332Z,1.91
2018-02-17T18:19:49.788Z,1.69
2018-02-17T18:22:17.245Z,1.81
2018-02-17T18:24:45.034Z,1.90
2018-02-17T18:27:12.492Z,1.88
2018-02-17T18:29:39.962Z,2.02
2018-02-17T18:32:08.030Z,1.77
2018-02-17T18:34:35.501Z,1.96
2018-02-17T18:37:02.953Z,2.16
2018-02-17T18:39:30.686Z,1.89
2018-02-17T18:41:58.171Z,1.78
2018-02-17T18:44:25.630Z,1.80
2018-02-17T18:46:53.379Z,1.74
2018-02-17T18:49:20.842Z,1.72
2018-02-17T18:51:48.300Z,1.92
2018-02-17T18:54:16.089Z,1.85
2018-02-17T18:56:43.545Z,1.74
2018-02-17T18:59:11.334Z,1.67
2018-02-17T19:01:39.064Z,1.59
2018-02-17T19:04:06.530Z,1.80
2018-02-17T19:06:33.994Z,1.86
2018-02-17T19:09:01.741Z,1.74
2018-02-17T19:11:29.794Z,1.73
2018-02-17T19:13:57.258Z,2.18
2018-02-17T19:16:25.354Z,2.12
2018-02-17T19:18:52.817Z,2.03
2018-02-17T19:21:20.277Z,1.99
2018-02-17T19:23:48.341Z,2.07
2018-02-17T19:26:15.789Z,2.17
2018-02-17T19:28:43.253Z,2.26
2018-02-17T19:31:10.853Z,2.14
2018-02-17T19:33:38.314Z,2.24
2018-02-17T19:36:05.950Z,2.21
2018-02-17T19:38:34.347Z,2.49
2018-02-17T19:41:01.810Z,2.28
2018-02-17T19:43:29.949Z,2.57
2018-02-17T19:45:57.789Z,2.58
2018-02-17T19:48:25.448Z,2.55
2018-02-17T19:50:52.913Z,2.51
2018-02-17T19:53:20.838Z,2.40
2018-02-17T19:55:48.299Z,2.45
2018-02-17T19:58:15.759Z,2.76
2018-02-17T20:00:43.668Z,2.52
2018-02-17T20:03:11.135Z,2.46
2018-02-17T20:05:38.604Z,2.51
2018-02-17T20:08:06.317Z,2.48
2018-02-17T20:10:33.786Z,2.59
2018-02-17T20:13:01.240Z,2.52
2018-02-17T20:15:28.994Z,2.41
2018-02-17T20:17:56.458Z,2.27
2018-02-17T20:20:23.921Z,2.46
2018-02-17T20:22:51.686Z,2.51
2018-02-17T20:25:19.205Z,2.43
2018-02-17T20:27:46.634Z,2.62
2018-02-17T20:30:14.674Z,2.54
2018-02-17T20:32:42.133Z,2.55
2018-02-17T20:35:09.593Z,2.42
2018-02-17T20:37:37.323Z,2.32
2018-02-17T20:40:04.829Z,2.22
2018-02-17T20:42:32.253Z,2.09
2018-02-17T20:45:00.049Z,2.03
2018-02-17T20:47:27.526Z,1.96
2018-02-17T20:49:54.985Z,2.01
2018-02-17T20:52:23.045Z,2.26
2018-02-17T20:54:50.498Z,2.18
2018-02-17T20:57:17.961Z,2.03
2018-02-17T20:59:45.748Z,1.99
2018-02-17T21:02:14.489Z,2.07
2018-02-17T21:04:41.941Z,2.08
2018-02-17T21:07:09.752Z,2.09
2018-02-17T21:09:37.186Z,2.09
2018-02-17T21:12:04.837Z,2.06
2018-02-17T21:14:32.645Z,1.99
2018-02-17T21:17:00.114Z,2.03
2018-02-17T21:19:27.580Z,1.99
2018-02-17T21:21:55.937Z,1.92
2018-02-17T21:24:23.403Z,1.95
2018-02-17T21:26:50.860Z,1.92
2018-02-17T21:29:18.629Z,1.93
2018-02-17T21:31:46.090Z,1.91
2018-02-17T21:34:13.562Z,1.91
2018-02-17T21:36:41.321Z,1.91
2018-02-17T21:39:08.786Z,1.90
2018-02-17T21:41:36.240Z,1.79
2018-02-17T21:44:04.009Z,1.87
2018-02-17T21:46:31.466Z,1.92
2018-02-17T21:48:58.930Z,1.94
2018-02-17T21:51:26.687Z,1.87
2018-02-17T21:53:54.157Z,2.00
2018-02-17T21:56:21.629Z,1.83
2018-02-17T21:58:49.390Z,2.05
2018-02-17T22:01:16.850Z,2.09
2018-02-17T22:03:45.557Z,2.03
2018-02-17T22:06:13.287Z,2.01
2018-02-17T22:08:40.762Z,2.15
2018-02-17T22:11:08.259Z,2.15
2018-02-17T22:13:36.128Z,2.06
2018-02-17T22:16:03.590Z,2.04
2018-02-17T22:18:31.048Z,2.07
2018-02-17T22:20:58.969Z,2.16
2018-02-17T22:23:26.433Z,2.09
2018-02-17T22:25:53.889Z,2.15
2018-02-17T22:28:21.675Z,2.29
2018-02-17T22:30:49.132Z,2.21
2018-02-17T22:33:16.590Z,2.56
2018-02-17T22:35:44.341Z,2.77
2018-02-17T22:38:11.797Z,2.32
2018-02-17T22:40:39.249Z,2.31
2018-02-17T22:43:07.349Z,2.27
2018-02-17T22:45:34.816Z,2.35
2018-02-17T22:48:02.561Z,2.32
2018-02-17T22:50:30.333Z,2.41
2018-02-17T22:52:57.789Z,2.36
2018-02-17T22:55:25.279Z,2.28
2018-02-17T22:57:53.134Z,2.15
2018-02-17T23:00:30.293Z,2.15
2018-02-17T23:02:58.241Z,2.16
2018-02-17T23:05:25.996Z,2.16
2018-02-17T23:07:53.460Z,2.14
2018-02-17T23:10:21.378Z,2.15
2018-02-17T23:12:48.838Z,2.16
2018-02-17T23:15:16.306Z,2.10
2018-02-17T23:17:44.065Z,2.27
2018-02-17T23:20:11.532Z,2.14
2018-02-17T23:22:38.993Z,2.17
2018-02-17T23:25:06.746Z,2.30
2018-02-17T23:27:34.209Z,2.26
2018-02-17T23:30:01.665Z,2.24
2018-02-17T23:32:29.750Z,2.22
2018-02-17T23:34:57.209Z,2.29
2018-02-17T23:37:24.670Z,2.41
2018-02-17T23:39:52.438Z,2.25
2018-02-17T23:42:19.897Z,2.32
2018-02-17T23:44:47.365Z,2.09
2018-02-17T23:47:15.129Z,2.04
2018-02-17T23:49:42.601Z,2.05
2018-02-17T23:52:10.061Z,2.06
2018-02-17T23:54:37.821Z,2.09
2018-02-17T23:57:05.278Z,2.11
2018-02-17T23:59:32.805Z,2.33
